Terminal Aerodrome Forecast
Issued by NWS

Home | Current Version | Previous Version | Text Only | Print | Product List | Glossary On
Versions: 1 2 3 4 5 6 7 8 9 10 11 12 13 14 15 16 17 18 19 20
000
FTUS46 KLOX 300200 AAA
TAFSBA
TAF AMD
KSBA 300256Z 3003/3024 22007KT 1SM BR BKN003
     FM301000 VRB03KT 1/2SM FG VV002
     FM301500 16006KT 2SM BR BKN003
     FM301700 16006KT P6SM SKC
     FM302100 23007KT P6SM SKC=

USA.gov is the U.S. government's official web portal to all federal, state and local government web resources and services.